River Of Ponds, Canada
Current Conditions -  °F | °C
As of 6:18 AM on Friday 19 Dec 2014 (Local Time) from CWDH Reporting Station
Overcast Overcast  
Wind Chill: 25°   Ceiling: 200
Heat Index: 34°   Visibility: 2.5mi
Dew Point: 30°   Wind: 13mph
Humidity: 85%   Direction: NA
Pressure: 29.32"   Gusts: NA
Location:  50.53°N, 57.38°W
Report Text: CWDH 190918Z AUTO 00011KT 2 1/2SM BKN002 OVC013 OVC030 01/M01 A2932 RMK T00121010 WSI/SWOB
Loading
Personal Weather Stations






























Interactive Weather Map New forecast layout! Learn more

10-Day Weather Forecast

Advertisements
Track Severe Weather on mobile